createdAt,value
2022-11-28T00:01:35.848Z,87.67
2022-11-28T00:04:03.560Z,88.86
2022-11-28T00:06:31.664Z,88.87
2022-11-28T00:09:00.387Z,88.14
2022-11-28T00:11:29.793Z,88.20
2022-11-28T00:13:57.455Z,89.09
2022-11-28T00:16:26.014Z,88.02
2022-11-28T00:18:56.218Z,88.21
2022-11-28T00:21:24.434Z,87.85
2022-11-28T00:23:52.985Z,88.87
2022-11-28T00:26:23.465Z,89.06
2022-11-28T00:28:53.876Z,89.14
2022-11-28T00:31:24.480Z,88.36
2022-11-28T00:33:52.928Z,88.19
2022-11-28T00:36:21.493Z,88.42
2022-11-28T00:38:50.457Z,88.52
2022-11-28T00:41:20.478Z,88.14
2022-11-28T00:43:49.656Z,88.20
2022-11-28T00:46:19.743Z,87.63
2022-11-28T00:48:48.483Z,88.38
2022-11-28T00:51:18.500Z,88.16
2022-11-28T00:53:48.687Z,88.44
2022-11-28T00:56:18.799Z,88.25
2022-11-28T00:58:49.717Z,88.47
2022-11-28T01:01:20.950Z,88.33
2022-11-28T01:03:50.954Z,88.27
2022-11-28T01:06:23.029Z,87.67
2022-11-28T01:08:51.861Z,88.05
2022-11-28T01:11:20.071Z,87.16
2022-11-28T01:13:48.888Z,87.69
2022-11-28T01:16:17.089Z,87.62
2022-11-28T01:18:47.128Z,87.98
2022-11-28T01:21:14.844Z,87.77
2022-11-28T01:23:42.880Z,87.47
2022-11-28T01:26:12.517Z,87.28
2022-11-28T01:28:40.988Z,87.72
2022-11-28T01:31:10.672Z,87.53
2022-11-28T01:33:38.383Z,87.92
2022-11-28T01:36:07.983Z,87.41
2022-11-28T01:38:36.515Z,87.37
2022-11-28T01:41:04.328Z,88.04
2022-11-28T01:43:32.852Z,87.23
2022-11-28T01:46:00.637Z,86.77
2022-11-28T01:48:32.054Z,87.62
2022-11-28T01:51:03.161Z,87.32
2022-11-28T01:53:35.960Z,88.11
2022-11-28T01:56:08.438Z,88.33
2022-11-28T01:58:40.368Z,88.24
2022-11-28T02:01:09.042Z,88.84
2022-11-28T02:03:44.280Z,88.55
2022-11-28T02:06:14.107Z,88.48
2022-11-28T02:08:43.560Z,88.53
2022-11-28T02:11:25.440Z,88.73
2022-11-28T02:14:07.064Z,88.06
2022-11-28T02:16:49.660Z,88.44
2022-11-28T02:19:44.694Z,87.78
2022-11-28T02:22:18.042Z,87.55
2022-11-28T02:24:58.532Z,87.66
2022-11-28T02:27:57.868Z,86.54
2022-11-28T02:30:33.075Z,87.30
2022-11-28T02:33:23.242Z,86.84
2022-11-28T02:35:59.561Z,86.97
2022-11-28T02:38:44.028Z,87.47
2022-11-28T02:41:20.605Z,87.93
2022-11-28T02:44:01.498Z,88.11
2022-11-28T02:46:39.137Z,88.65
2022-11-28T02:49:13.740Z,87.75
2022-11-28T02:51:44.628Z,87.61
2022-11-28T02:54:15.689Z,87.83
2022-11-28T02:56:48.290Z,87.72
2022-11-28T02:59:33.817Z,87.80
2022-11-28T03:02:02.641Z,87.82
2022-11-28T03:04:44.378Z,87.65
2022-11-28T03:07:23.945Z,87.58
2022-11-28T03:10:04.961Z,87.58
2022-11-28T03:12:48.119Z,87.51
2022-11-28T03:15:19.899Z,87.41
2022-11-28T03:17:56.121Z,87.25
2022-11-28T03:20:32.325Z,87.86
2022-11-28T03:23:12.234Z,88.08
2022-11-28T03:25:51.201Z,87.78
2022-11-28T03:28:24.534Z,88.50
2022-11-28T03:30:54.985Z,87.77
2022-11-28T03:33:26.145Z,90.02
2022-11-28T03:36:00.246Z,92.91
2022-11-28T03:38:32.762Z,93.52
2022-11-28T03:41:08.176Z,94.65
2022-11-28T03:43:42.183Z,94.83
2022-11-28T03:46:14.673Z,95.41
2022-11-28T03:48:46.257Z,94.77
2022-11-28T03:51:18.118Z,95.16
2022-11-28T03:53:52.294Z,93.96
2022-11-28T03:56:25.701Z,92.58
2022-11-28T03:58:57.610Z,92.06
2022-11-28T04:01:33.084Z,91.95
2022-11-28T04:04:10.835Z,91.71
2022-11-28T04:06:52.189Z,90.51
2022-11-28T04:09:26.084Z,89.61
2022-11-28T04:11:57.776Z,89.25
2022-11-28T04:14:33.284Z,88.78
2022-11-28T04:17:06.779Z,89.33
2022-11-28T04:19:39.845Z,89.88
2022-11-28T04:22:17.172Z,90.25
2022-11-28T04:24:49.874Z,89.80
2022-11-28T04:27:24.132Z,89.38
2022-11-28T04:29:58.048Z,88.69
2022-11-28T04:32:28.274Z,87.82
2022-11-28T04:35:02.472Z,88.25
2022-11-28T04:37:33.492Z,88.53
2022-11-28T04:40:02.011Z,88.24
2022-11-28T04:42:36.349Z,88.32
2022-11-28T04:45:10.821Z,88.69
2022-11-28T04:47:38.758Z,88.30
2022-11-28T04:50:08.062Z,87.71
2022-11-28T04:52:45.344Z,87.72
2022-11-28T04:55:19.464Z,87.15
2022-11-28T04:57:56.904Z,87.69
2022-11-28T05:00:25.142Z,86.94
2022-11-28T05:02:55.426Z,87.23
2022-11-28T05:05:24.896Z,87.68
2022-11-28T05:07:54.612Z,87.62
2022-11-28T05:10:22.512Z,87.51
2022-11-28T05:12:50.939Z,87.39
2022-11-28T05:15:19.243Z,87.50
2022-11-28T05:17:48.142Z,87.83
2022-11-28T05:20:16.863Z,88.04
2022-11-28T05:22:44.552Z,87.87
2022-11-28T05:25:13.617Z,87.90
2022-11-28T05:27:41.290Z,87.87
2022-11-28T05:30:11.004Z,87.32
2022-11-28T05:32:38.792Z,87.55
2022-11-28T05:35:06.886Z,87.52
2022-11-28T05:37:34.863Z,87.92
2022-11-28T05:40:02.665Z,88.06
2022-11-28T05:42:35.575Z,87.79
2022-11-28T05:45:03.336Z,87.89
2022-11-28T05:47:32.189Z,87.60
2022-11-28T05:50:00.126Z,88.21
2022-11-28T05:52:32.161Z,88.72
2022-11-28T05:55:01.448Z,88.71
2022-11-28T05:57:31.943Z,88.05
2022-11-28T06:00:01.022Z,89.03
2022-11-28T06:02:28.752Z,89.94
2022-11-28T06:04:56.506Z,89.30
2022-11-28T06:07:24.410Z,88.67
2022-11-28T06:09:52.110Z,88.36
2022-11-28T06:12:20.074Z,89.48
2022-11-28T06:14:47.761Z,88.78
2022-11-28T06:17:17.425Z,89.46
2022-11-28T06:19:45.291Z,89.63
2022-11-28T06:22:13.385Z,90.59
2022-11-28T06:24:41.068Z,89.80
2022-11-28T06:27:09.460Z,89.51
2022-11-28T06:29:37.106Z,89.67
2022-11-28T06:32:04.899Z,89.50
2022-11-28T06:34:34.451Z,89.53
2022-11-28T06:37:02.081Z,89.00
2022-11-28T06:39:30.136Z,89.54
2022-11-28T06:41:58.061Z,90.18
2022-11-28T06:44:26.672Z,90.05
2022-11-28T06:46:55.124Z,89.68
2022-11-28T06:49:23.438Z,88.92
2022-11-28T06:51:52.450Z,89.54
2022-11-28T06:54:20.423Z,89.86
2022-11-28T06:56:48.126Z,89.55
2022-11-28T06:59:16.313Z,89.75
2022-11-28T07:01:44.067Z,89.65
2022-11-28T07:04:11.792Z,89.77
2022-11-28T07:06:39.438Z,89.95
2022-11-28T07:09:08.784Z,90.05
2022-11-28T07:11:36.454Z,89.56
2022-11-28T07:14:04.617Z,89.36
2022-11-28T07:16:34.193Z,89.47
2022-11-28T07:19:02.336Z,89.19
2022-11-28T07:21:30.825Z,89.69
2022-11-28T07:24:00.006Z,88.90
2022-11-28T07:26:28.985Z,89.09
2022-11-28T07:29:00.113Z,89.44
2022-11-28T07:31:32.016Z,89.60
2022-11-28T07:34:02.147Z,89.08
2022-11-28T07:36:30.338Z,88.85
2022-11-28T07:39:00.455Z,88.84
2022-11-28T07:41:30.003Z,88.49
2022-11-28T07:43:59.777Z,88.25
2022-11-28T07:46:29.207Z,87.65
2022-11-28T07:48:57.979Z,87.86
2022-11-28T07:51:27.952Z,88.05
2022-11-28T07:53:56.401Z,87.60
2022-11-28T07:56:25.660Z,87.28
2022-11-28T07:58:57.925Z,87.45
2022-11-28T08:01:31.769Z,87.12
2022-11-28T08:04:01.350Z,87.47
2022-11-28T08:06:31.266Z,87.66
2022-11-28T08:09:01.831Z,87.71
2022-11-28T08:11:30.633Z,87.31
2022-11-28T08:13:59.789Z,87.24
2022-11-28T08:16:29.814Z,87.08
2022-11-28T08:18:57.757Z,87.32
2022-11-28T08:21:27.436Z,87.27
2022-11-28T08:23:57.384Z,87.62
2022-11-28T08:26:30.351Z,87.31
2022-11-28T08:29:00.933Z,87.51
2022-11-28T08:31:30.694Z,87.41
2022-11-28T08:34:01.584Z,87.11
2022-11-28T08:36:29.749Z,86.67
2022-11-28T08:39:16.696Z,86.33
2022-11-28T08:41:47.801Z,86.58
2022-11-28T08:44:17.626Z,86.51
2022-11-28T08:46:45.299Z,86.63
2022-11-28T08:49:13.612Z,86.21
2022-11-28T08:51:41.302Z,86.20
2022-11-28T08:54:09.595Z,86.50
2022-11-28T08:56:37.265Z,86.48
2022-11-28T08:59:06.965Z,86.60
2022-11-28T09:01:36.412Z,86.16
2022-11-28T09:04:05.384Z,86.11
2022-11-28T09:06:33.521Z,86.50
2022-11-28T09:09:01.938Z,86.17
2022-11-28T09:11:30.222Z,85.74
2022-11-28T09:13:57.989Z,85.32
2022-11-28T09:16:26.434Z,84.95
2022-11-28T09:18:57.397Z,85.43
2022-11-28T09:21:25.040Z,85.46
2022-11-28T09:23:55.330Z,84.94
2022-11-28T09:26:26.248Z,84.91
2022-11-28T09:28:54.872Z,84.68
2022-11-28T09:31:23.789Z,84.86
2022-11-28T09:33:51.603Z,84.29
2022-11-28T09:36:22.644Z,84.41
2022-11-28T09:38:50.498Z,84.75
2022-11-28T09:41:39.087Z,84.57
2022-11-28T09:44:14.885Z,84.57
2022-11-28T09:46:43.813Z,84.37
2022-11-28T09:49:23.084Z,84.69
2022-11-28T09:51:56.165Z,84.79
2022-11-28T09:54:33.289Z,85.13
2022-11-28T09:57:03.356Z,84.86
2022-11-28T09:59:32.728Z,84.49
2022-11-28T10:02:14.053Z,83.59
2022-11-28T10:04:46.396Z,84.00
2022-11-28T10:07:25.184Z,83.47
2022-11-28T10:10:01.172Z,83.29
2022-11-28T10:12:42.751Z,83.79
2022-11-28T10:15:38.413Z,83.50
2022-11-28T10:18:23.416Z,83.43
2022-11-28T10:20:55.816Z,83.70
2022-11-28T10:23:30.238Z,83.22
2022-11-28T10:26:01.624Z,82.67
2022-11-28T10:28:33.489Z,82.57
2022-11-28T10:31:07.220Z,82.70
2022-11-28T10:33:41.012Z,82.52
2022-11-28T10:36:18.339Z,82.10
2022-11-28T10:38:47.311Z,81.85
2022-11-28T10:41:19.956Z,81.92
2022-11-28T10:43:54.971Z,80.71
2022-11-28T10:46:43.195Z,80.36
2022-11-28T10:49:24.117Z,80.16
2022-11-28T10:52:02.775Z,80.02
2022-11-28T10:54:48.122Z,79.70
2022-11-28T10:57:22.588Z,80.00
2022-11-28T11:00:00.450Z,80.07
2022-11-28T11:02:38.491Z,79.53
2022-11-28T11:05:07.210Z,78.96
2022-11-28T11:07:35.819Z,78.67
2022-11-28T11:10:15.274Z,77.79
2022-11-28T11:12:45.193Z,77.71
2022-11-28T11:15:22.877Z,78.01
2022-11-28T11:17:51.815Z,78.05
2022-11-28T11:20:33.621Z,77.34
2022-11-28T11:23:03.313Z,77.83
2022-11-28T11:25:33.256Z,77.82
2022-11-28T11:28:04.909Z,78.59
2022-11-28T11:30:35.866Z,78.62
2022-11-28T11:33:07.489Z,77.96
2022-11-28T11:35:37.561Z,77.65
2022-11-28T11:38:18.537Z,77.76
2022-11-28T11:40:48.017Z,77.69
2022-11-28T11:43:28.135Z,78.57
2022-11-28T11:46:07.293Z,78.94
2022-11-28T11:48:37.769Z,79.57
2022-11-28T11:51:06.137Z,79.30
2022-11-28T11:53:34.032Z,79.27
2022-11-28T11:56:04.515Z,78.69
2022-11-28T11:58:40.992Z,77.76
2022-11-28T12:01:11.898Z,77.24
2022-11-28T12:03:44.012Z,77.32
2022-11-28T12:06:17.001Z,77.68
2022-11-28T12:08:51.190Z,77.78
2022-11-28T12:11:26.236Z,77.68
2022-11-28T12:13:54.635Z,78.17
2022-11-28T12:16:41.459Z,78.35
2022-11-28T12:19:22.796Z,78.06
2022-11-28T12:22:04.182Z,78.02
2022-11-28T12:24:40.235Z,77.94
2022-11-28T12:27:22.057Z,78.32
2022-11-28T12:30:02.628Z,77.90
2022-11-28T12:32:43.576Z,77.92
2022-11-28T12:35:25.844Z,77.94
2022-11-28T12:38:10.849Z,77.85
2022-11-28T12:40:51.887Z,78.40
2022-11-28T12:43:31.505Z,78.32
2022-11-28T12:46:06.643Z,77.85
2022-11-28T12:48:51.658Z,78.26
2022-11-28T12:51:32.384Z,79.01
2022-11-28T12:54:15.858Z,78.87
2022-11-28T12:56:52.767Z,78.94
2022-11-28T12:59:28.351Z,78.59
2022-11-28T13:02:09.419Z,78.67
2022-11-28T13:04:58.280Z,78.88
2022-11-28T13:07:40.963Z,78.83
2022-11-28T13:10:15.136Z,79.25
2022-11-28T13:12:51.893Z,79.46
2022-11-28T13:15:37.988Z,79.47
2022-11-28T13:18:19.062Z,79.78
2022-11-28T13:20:54.065Z,79.50
2022-11-28T13:23:28.641Z,79.20
2022-11-28T13:26:03.625Z,78.84
2022-11-28T13:28:38.645Z,78.50
2022-11-28T13:31:13.952Z,79.03
2022-11-28T13:33:51.566Z,78.68
2022-11-28T13:39:28.449Z,79.25
2022-11-28T13:42:43.948Z,79.29
2022-11-28T13:45:01.332Z,79.93
2022-11-28T13:47:35.033Z,79.78
2022-11-28T13:50:39.490Z,80.09
2022-11-28T13:53:31.448Z,80.13
2022-11-28T13:56:21.876Z,80.41
2022-11-28T13:58:53.939Z,80.27
2022-11-28T14:01:23.689Z,80.45
2022-11-28T14:04:02.769Z,80.55
2022-11-28T14:06:32.467Z,80.38
2022-11-28T14:09:07.370Z,80.79
2022-11-28T14:12:00.362Z,80.79
2022-11-28T14:14:57.541Z,80.83
2022-11-28T14:17:41.953Z,81.43
2022-11-28T14:20:26.068Z,81.31
2022-11-28T14:23:14.141Z,82.00
2022-11-28T14:25:44.898Z,82.07
2022-11-28T14:28:23.182Z,82.08
2022-11-28T14:30:52.423Z,81.97
2022-11-28T14:33:24.449Z,82.50
2022-11-28T14:36:24.053Z,82.28
2022-11-28T14:39:27.743Z,82.37
2022-11-28T14:45:43.374Z,82.96
2022-11-28T14:48:28.404Z,82.91
2022-11-28T14:51:01.853Z,83.18
2022-11-28T14:53:49.872Z,83.05
2022-11-28T14:56:26.004Z,82.99
2022-11-28T14:58:58.870Z,83.72
2022-11-28T15:01:41.725Z,83.41
2022-11-28T15:04:40.110Z,83.49
2022-11-28T15:07:22.546Z,84.16
2022-11-28T15:10:07.537Z,83.90
2022-11-28T15:12:47.407Z,84.00
2022-11-28T15:15:17.061Z,83.80
2022-11-28T15:17:51.274Z,84.47
2022-11-28T15:20:25.442Z,84.59
2022-11-28T15:22:53.501Z,84.68
2022-11-28T15:25:25.249Z,84.17
2022-11-28T15:27:55.292Z,84.79
2022-11-28T15:30:26.965Z,84.68
2022-11-28T15:32:58.450Z,84.94
2022-11-28T15:35:27.521Z,84.63
2022-11-28T15:37:58.362Z,85.08
2022-11-28T15:40:32.543Z,84.75
2022-11-28T15:43:02.322Z,84.90
2022-11-28T15:45:35.656Z,84.75
2022-11-28T15:48:04.544Z,85.10
2022-11-28T15:50:35.096Z,85.35
2022-11-28T15:53:05.475Z,85.38
2022-11-28T15:55:36.252Z,85.50
2022-11-28T15:58:12.080Z,85.63
2022-11-28T16:00:43.115Z,85.69
2022-11-28T16:03:16.888Z,85.59
2022-11-28T16:05:47.152Z,85.49
2022-11-28T16:08:28.330Z,85.74
2022-11-28T16:10:58.873Z,85.65
2022-11-28T16:13:26.764Z,86.00
2022-11-28T16:15:57.544Z,85.83
2022-11-28T16:18:28.243Z,85.93
2022-11-28T16:20:57.259Z,85.67
2022-11-28T16:23:29.402Z,86.08
2022-11-28T16:26:04.073Z,86.06
2022-11-28T16:28:34.280Z,85.80
2022-11-28T16:31:02.756Z,85.85
2022-11-28T16:33:39.117Z,86.13
2022-11-28T16:36:34.467Z,85.91
2022-11-28T16:39:09.237Z,86.23
2022-11-28T16:41:40.813Z,86.13
2022-11-28T16:44:13.603Z,86.29
2022-11-28T16:46:49.367Z,86.33
2022-11-28T16:49:34.484Z,86.33
2022-11-28T16:52:51.525Z,86.26
2022-11-28T16:55:41.936Z,86.15
2022-11-28T16:58:14.345Z,86.03
2022-11-28T17:00:47.637Z,86.12
2022-11-28T17:03:48.477Z,87.10
2022-11-28T17:06:22.399Z,87.01
2022-11-28T17:08:50.460Z,87.02
2022-11-28T17:11:21.096Z,86.79
2022-11-28T17:13:51.006Z,86.46
2022-11-28T17:16:21.855Z,87.30
2022-11-28T17:18:50.378Z,87.59
2022-11-28T17:21:23.093Z,87.13
2022-11-28T17:23:51.116Z,87.10
2022-11-28T17:26:18.773Z,86.92
2022-11-28T17:28:47.008Z,87.43
2022-11-28T17:31:16.064Z,87.44
2022-11-28T17:33:44.994Z,87.57
2022-11-28T17:36:13.340Z,87.42
2022-11-28T17:38:41.377Z,87.64
2022-11-28T17:41:13.399Z,87.41
2022-11-28T17:43:41.430Z,87.29
2022-11-28T17:46:10.047Z,87.59
2022-11-28T17:48:39.724Z,87.28
2022-11-28T17:51:07.474Z,87.92
2022-11-28T17:53:35.921Z,87.83
2022-11-28T17:56:04.442Z,87.56
2022-11-28T17:58:32.823Z,87.77
2022-11-28T18:01:01.162Z,87.70
2022-11-28T18:03:30.199Z,88.04
2022-11-28T18:05:59.393Z,87.87
2022-11-28T18:08:27.365Z,88.14
2022-11-28T18:11:04.629Z,88.03
2022-11-28T18:13:33.406Z,88.15
2022-11-28T18:16:01.470Z,88.33
2022-11-28T18:18:30.370Z,88.48
2022-11-28T18:21:00.234Z,88.44
2022-11-28T18:23:28.421Z,87.87
2022-11-28T18:25:56.063Z,87.95
2022-11-28T18:28:23.757Z,88.51
2022-11-28T18:30:51.525Z,88.23
2022-11-28T18:33:20.637Z,88.28
2022-11-28T18:35:48.345Z,88.98
2022-11-28T18:38:18.124Z,89.03
2022-11-28T18:40:45.833Z,88.74
2022-11-28T18:43:13.944Z,88.90
2022-11-28T18:45:41.961Z,88.78
2022-11-28T18:48:10.671Z,89.09
2022-11-28T18:50:39.962Z,88.77
2022-11-28T18:53:08.412Z,88.78
2022-11-28T18:55:37.774Z,88.94
2022-11-28T18:58:06.805Z,88.73
2022-11-28T19:00:34.549Z,88.80
2022-11-28T19:03:03.213Z,89.62
2022-11-28T19:05:35.045Z,89.21
2022-11-28T19:08:06.239Z,89.29
2022-11-28T19:10:39.728Z,89.18
2022-11-28T19:13:07.753Z,89.17
2022-11-28T19:15:39.157Z,89.56
2022-11-28T19:18:07.173Z,89.60
2022-11-28T19:20:35.638Z,89.44
2022-11-28T19:23:03.716Z,89.20
2022-11-28T19:25:32.430Z,89.03
2022-11-28T19:28:01.823Z,89.43
2022-11-28T19:30:29.568Z,89.48
2022-11-28T19:32:58.192Z,89.42
2022-11-28T19:35:25.915Z,89.39
2022-11-28T19:37:54.749Z,89.36
2022-11-28T19:40:22.756Z,89.67
2022-11-28T19:42:51.020Z,89.46
2022-11-28T19:45:24.409Z,89.38
2022-11-28T19:47:55.757Z,89.49
2022-11-28T19:50:25.603Z,89.13
2022-11-28T19:52:56.532Z,89.02
2022-11-28T19:55:24.351Z,89.03
2022-11-28T19:57:52.800Z,89.12
2022-11-28T20:00:22.819Z,89.20
2022-11-28T20:02:50.520Z,89.17
2022-11-28T20:05:19.107Z,89.36
2022-11-28T20:07:47.150Z,89.12
2022-11-28T20:10:14.905Z,89.22
2022-11-28T20:12:43.057Z,89.13
2022-11-28T20:15:16.679Z,89.24
2022-11-28T20:17:47.653Z,89.22
2022-11-28T20:20:15.822Z,89.57
2022-11-28T20:22:43.545Z,89.61
2022-11-28T20:25:16.479Z,89.40
2022-11-28T20:27:46.909Z,89.08
2022-11-28T20:30:15.703Z,89.43
2022-11-28T20:32:43.914Z,89.71
2022-11-28T20:35:13.224Z,89.33
2022-11-28T20:37:40.957Z,89.17
2022-11-28T20:40:10.300Z,89.11
2022-11-28T20:42:39.987Z,89.36
2022-11-28T20:45:08.994Z,89.48
2022-11-28T20:47:36.664Z,89.50
2022-11-28T20:50:05.196Z,89.51
2022-11-28T20:52:34.226Z,89.61
2022-11-28T20:55:02.607Z,89.47
2022-11-28T20:57:30.267Z,89.85
2022-11-28T20:59:58.243Z,89.92
2022-11-28T21:02:25.991Z,89.87
2022-11-28T21:04:53.996Z,89.37
2022-11-28T21:07:22.793Z,88.74
2022-11-28T21:09:54.005Z,88.26
2022-11-28T21:12:21.713Z,88.99
2022-11-28T21:14:49.831Z,89.28
2022-11-28T21:17:17.509Z,89.75
2022-11-28T21:19:45.793Z,89.54
2022-11-28T21:22:13.707Z,90.11
2022-11-28T21:24:41.494Z,90.34
2022-11-28T21:27:10.866Z,90.11
2022-11-28T21:29:38.524Z,90.07
2022-11-28T21:32:06.340Z,89.88
2022-11-28T21:34:34.749Z,89.81
2022-11-28T21:37:02.808Z,89.78
2022-11-28T21:39:31.076Z,89.82
2022-11-28T21:41:58.742Z,90.19
2022-11-28T21:44:27.939Z,89.96
2022-11-28T21:46:55.570Z,90.32
2022-11-28T21:49:23.614Z,90.11
2022-11-28T21:51:53.910Z,90.20
2022-11-28T21:54:24.555Z,89.97
2022-11-28T21:56:53.148Z,89.79
2022-11-28T21:59:22.745Z,89.97
2022-11-28T22:01:52.367Z,89.78
2022-11-28T22:04:21.885Z,89.62
2022-11-28T22:06:50.774Z,89.73
2022-11-28T22:09:19.089Z,89.59
2022-11-28T22:11:46.773Z,89.74
2022-11-28T22:14:16.337Z,89.81
2022-11-28T22:16:44.000Z,90.16
2022-11-28T22:19:14.327Z,89.67
2022-11-28T22:21:53.139Z,89.51
2022-11-28T22:24:23.469Z,89.35
2022-11-28T22:26:51.323Z,89.74
2022-11-28T22:29:19.835Z,89.74
2022-11-28T22:31:49.219Z,89.48
2022-11-28T22:34:20.135Z,89.46
2022-11-28T22:36:47.821Z,89.21
2022-11-28T22:39:15.995Z,89.44
2022-11-28T22:41:43.700Z,89.58
2022-11-28T22:44:12.195Z,89.28
2022-11-28T22:46:40.006Z,89.22
2022-11-28T22:49:10.944Z,89.26
2022-11-28T22:51:40.940Z,89.48
2022-11-28T22:54:12.415Z,89.74
2022-11-28T22:56:41.008Z,89.83
2022-11-28T22:59:13.152Z,90.10
2022-11-28T23:01:41.840Z,90.26
2022-11-28T23:04:09.907Z,90.95
2022-11-28T23:06:40.190Z,91.35
2022-11-28T23:09:09.569Z,91.43
2022-11-28T23:11:40.220Z,91.10
2022-11-28T23:14:08.920Z,91.51
2022-11-28T23:16:39.807Z,91.37
2022-11-28T23:19:11.577Z,91.04
2022-11-28T23:21:43.518Z,90.99
2022-11-28T23:24:15.564Z,91.25
2022-11-28T23:26:44.807Z,91.02
2022-11-28T23:29:14.304Z,91.18
2022-11-28T23:31:43.841Z,91.44
2022-11-28T23:34:12.624Z,91.38
2022-11-28T23:36:43.973Z,91.36
2022-11-28T23:39:13.618Z,91.89
2022-11-28T23:41:42.316Z,91.49
2022-11-28T23:44:11.173Z,91.55
2022-11-28T23:46:39.337Z,91.52
2022-11-28T23:49:07.612Z,92.04
2022-11-28T23:51:37.093Z,91.79
2022-11-28T23:54:06.389Z,91.74
2022-11-28T23:56:36.463Z,91.61
2022-11-28T23:59:06.622Z,91.88
